DTKA/TBJ METAR and TAF weather

Enter ICAO airport designator
Station Type Date Time Source
DTKA METAR 2021/05/12 02:00 UTC NOAA

DTKA 120200Z 28018KT 9999 SCT020 SCT030 17/12 Q1019 NOSIG


Station Type Date Time Source
DTKA Decoded METAR 2021/05/12 02:00 UTC NOAA

Tabarka, Tunisia (DTKA) 36-57N 008-45E 21M
May 11, 2021 - 10:00 PM EDT / 2021.05.12 0200 UTC
Wind: from the W (280 degrees) at 21 MPH (18 KT):0
Visibility: greater than 7 mile(s):0
Sky conditions: partly cloudy
Temperature: 62 F (17 C)
Dew Point: 53 F (12 C)
Relative Humidity: 72%
Pressure (altimeter): 30.09 in. Hg (1019 hPa)
ob: DTKA 120200Z 28018KT 9999 SCT020 SCT030 17/12 Q1019 NOSIG
cycle: 2

Station Type Date Time Source
DTKA TAF 2021/01/24 22:42 UTC NOAA

TAF TAF DTKA 242100Z 2422/2607 29015KT 9999 SCT020
BECMG 2502/2504 27008KT

Example: see airport list